« Back
NWS Peachtree City, Ga » Text Product » MCN Terminal Aerodrome Forecast


Printer-friendly Version
Current Version              Previous Versions:   1  2  3  4  5  6  7  8  9  

Terminal Aerodrome Forecast

668
FTUS42 KFFC 291128
TAFMCN
TAF
KMCN 291128Z 2912/3012 34005KT 1SM BR SCT002
      TEMPO 2912/2914 1/4SM FG VV002
     FM291400 04005KT 5SM BR FEW002
     FM291600 35003KT P6SM FEW050
     FM292000 23005KT P6SM FEW050
     FM292300 17004KT P6SM SKC=

USA.gov is the U.S. government's official web portal to all federal, state and local government web resources and services.